sensor_id;sensor_type;location;lat;lon;timestamp;temperature;humidity
21387;DHT22;10854;45.922;6.716;2023-09-19T11:50:21;29.90;56.30
21387;DHT22;10854;45.922;6.716;2023-09-19T11:52:55;29.50;57.60
21387;DHT22;10854;45.922;6.716;2023-09-19T11:55:25;29.30;57.90
21387;DHT22;10854;45.922;6.716;2023-09-19T11:57:59;29.20;57.90
21387;DHT22;10854;45.922;6.716;2023-09-19T12:00:30;29.30;57.50
21387;DHT22;10854;45.922;6.716;2023-09-19T12:03:03;29.40;57.20
21387;DHT22;10854;45.922;6.716;2023-09-19T12:05:35;29.20;57.30
21387;DHT22;10854;45.922;6.716;2023-09-19T12:08:15;29.00;56.90
21387;DHT22;10854;45.922;6.716;2023-09-19T12:11:11;29.00;57.30
21387;DHT22;10854;45.922;6.716;2023-09-19T12:14:37;29.30;57.20
21387;DHT22;10854;45.922;6.716;2023-09-19T12:17:36;29.40;55.60
21387;DHT22;10854;45.922;6.716;2023-09-19T12:20:09;29.00;55.40
21387;DHT22;10854;45.922;6.716;2023-09-19T12:22:42;28.90;56.30
21387;DHT22;10854;45.922;6.716;2023-09-19T12:29:11;29.40;56.60
21387;DHT22;10854;45.922;6.716;2023-09-19T12:31:58;29.70;56.10
21387;DHT22;10854;45.922;6.716;2023-09-19T12:34:31;29.70;54.80
21387;DHT22;10854;45.922;6.716;2023-09-19T12:37:14;29.60;55.10
21387;DHT22;10854;45.922;6.716;2023-09-19T12:40:06;29.50;54.80
21387;DHT22;10854;45.922;6.716;2023-09-19T12:43:12;29.50;54.40
21387;DHT22;10854;45.922;6.716;2023-09-19T12:46:03;29.50;55.00
21387;DHT22;10854;45.922;6.716;2023-09-19T12:48:39;29.40;55.20
21387;DHT22;10854;45.922;6.716;2023-09-19T12:51:47;29.20;54.10
21387;DHT22;10854;45.922;6.716;2023-09-19T12:54:42;29.10;54.70
21387;DHT22;10854;45.922;6.716;2023-09-19T12:57:25;29.40;55.70
21387;DHT22;10854;45.922;6.716;2023-09-19T13:00:44;29.90;54.60
21387;DHT22;10854;45.922;6.716;2023-09-19T13:04:18;30.00;53.10
21387;DHT22;10854;45.922;6.716;2023-09-19T13:06:55;30.10;53.60
21387;DHT22;10854;45.922;6.716;2023-09-19T13:10:06;30.20;53.40
21387;DHT22;10854;45.922;6.716;2023-09-19T13:12:43;30.30;51.40
21387;DHT22;10854;45.922;6.716;2023-09-19T13:15:19;30.10;51.90
21387;DHT22;10854;45.922;6.716;2023-09-19T13:17:49;29.80;52.60
21387;DHT22;10854;45.922;6.716;2023-09-19T13:20:26;29.70;53.00
21387;DHT22;10854;45.922;6.716;2023-09-19T13:23:05;29.70;52.60
21387;DHT22;10854;45.922;6.716;2023-09-19T13:26:00;29.70;52.90
21387;DHT22;10854;45.922;6.716;2023-09-19T13:28:32;29.70;52.80
21387;DHT22;10854;45.922;6.716;2023-09-19T13:31:04;29.70;52.60
21387;DHT22;10854;45.922;6.716;2023-09-19T13:33:46;29.80;53.10
21387;DHT22;10854;45.922;6.716;2023-09-19T13:36:16;29.90;52.70
21387;DHT22;10854;45.922;6.716;2023-09-19T13:38:47;29.90;52.80
21387;DHT22;10854;45.922;6.716;2023-09-19T13:41:24;29.90;52.70
21387;DHT22;10854;45.922;6.716;2023-09-19T13:43:53;29.80;52.90
21387;DHT22;10854;45.922;6.716;2023-09-19T13:46:22;30.00;53.00
21387;DHT22;10854;45.922;6.716;2023-09-19T13:49:20;30.20;52.90
21387;DHT22;10854;45.922;6.716;2023-09-19T13:51:57;30.30;51.60
21387;DHT22;10854;45.922;6.716;2023-09-19T13:54:35;30.20;52.30
21387;DHT22;10854;45.922;6.716;2023-09-19T13:57:18;30.00;51.70
21387;DHT22;10854;45.922;6.716;2023-09-19T13:59:47;29.80;52.30
21387;DHT22;10854;45.922;6.716;2023-09-19T14:02:18;29.70;52.00
21387;DHT22;10854;45.922;6.716;2023-09-19T14:04:53;29.50;52.20
21387;DHT22;10854;45.922;6.716;2023-09-19T14:07:28;29.40;52.50
21387;DHT22;10854;45.922;6.716;2023-09-19T14:10:05;29.20;52.80
21387;DHT22;10854;45.922;6.716;2023-09-19T14:12:59;29.00;52.60
21387;DHT22;10854;45.922;6.716;2023-09-19T14:15:27;28.90;53.40
21387;DHT22;10854;45.922;6.716;2023-09-19T14:18:13;28.80;53.40
21387;DHT22;10854;45.922;6.716;2023-09-19T14:20:45;28.80;54.00
21387;DHT22;10854;45.922;6.716;2023-09-19T14:23:21;28.90;53.80
21387;DHT22;10854;45.922;6.716;2023-09-19T14:26:04;28.90;53.20
21387;DHT22;10854;45.922;6.716;2023-09-19T14:28:38;28.80;53.60
21387;DHT22;10854;45.922;6.716;2023-09-19T14:31:09;29.00;54.20
21387;DHT22;10854;45.922;6.716;2023-09-19T14:34:01;29.00;54.80
21387;DHT22;10854;45.922;6.716;2023-09-19T14:36:32;28.80;54.50
21387;DHT22;10854;45.922;6.716;2023-09-19T14:39:04;28.60;55.20
21387;DHT22;10854;45.922;6.716;2023-09-19T14:41:41;28.50;55.80
21387;DHT22;10854;45.922;6.716;2023-09-19T14:44:16;28.40;56.30
21387;DHT22;10854;45.922;6.716;2023-09-19T14:46:48;28.30;56.70
21387;DHT22;10854;45.922;6.716;2023-09-19T14:49:20;28.10;57.10
21387;DHT22;10854;45.922;6.716;2023-09-19T14:51:55;27.70;57.60
21387;DHT22;10854;45.922;6.716;2023-09-19T14:54:31;27.40;58.40
21387;DHT22;10854;45.922;6.716;2023-09-19T14:57:06;27.10;58.00
21387;DHT22;10854;45.922;6.716;2023-09-19T14:59:55;26.90;58.80
21387;DHT22;10854;45.922;6.716;2023-09-19T15:02:30;26.70;58.90
21387;DHT22;10854;45.922;6.716;2023-09-19T15:04:59;26.60;59.40
21387;DHT22;10854;45.922;6.716;2023-09-19T15:07:32;26.60;59.50
21387;DHT22;10854;45.922;6.716;2023-09-19T15:10:02;26.60;59.70
21387;DHT22;10854;45.922;6.716;2023-09-19T15:12:34;26.50;59.70
21387;DHT22;10854;45.922;6.716;2023-09-19T15:15:07;26.30;60.10
21387;DHT22;10854;45.922;6.716;2023-09-19T15:17:40;26.00;60.60
21387;DHT22;10854;45.922;6.716;2023-09-19T15:20:26;25.70;61.50
21387;DHT22;10854;45.922;6.716;2023-09-19T15:23:00;25.40;62.10
21387;DHT22;10854;45.922;6.716;2023-09-19T15:25:31;25.20;62.60
21387;DHT22;10854;45.922;6.716;2023-09-19T15:28:08;25.20;63.20
21387;DHT22;10854;45.922;6.716;2023-09-19T15:30:40;25.20;63.20
21387;DHT22;10854;45.922;6.716;2023-09-19T15:33:12;25.30;62.50
21387;DHT22;10854;45.922;6.716;2023-09-19T15:35:42;25.20;62.80
21387;DHT22;10854;45.922;6.716;2023-09-19T15:38:20;25.00;63.30
21387;DHT22;10854;45.922;6.716;2023-09-19T15:40:54;24.80;64.00
21387;DHT22;10854;45.922;6.716;2023-09-19T15:43:34;24.60;64.40
21387;DHT22;10854;45.922;6.716;2023-09-19T15:46:08;24.40;64.90
21387;DHT22;10854;45.922;6.716;2023-09-19T15:48:59;24.20;65.50
21387;DHT22;10854;45.922;6.716;2023-09-19T15:51:46;24.00;65.60
21387;DHT22;10854;45.922;6.716;2023-09-19T15:54:42;23.80;65.90
21387;DHT22;10854;45.922;6.716;2023-09-19T15:57:18;23.80;66.20
21387;DHT22;10854;45.922;6.716;2023-09-19T15:59:46;24.00;66.10
21387;DHT22;10854;45.922;6.716;2023-09-19T16:02:18;24.10;65.60
21387;DHT22;10854;45.922;6.716;2023-09-19T16:04:54;24.20;65.60
21387;DHT22;10854;45.922;6.716;2023-09-19T16:07:50;24.40;65.00
21387;DHT22;10854;45.922;6.716;2023-09-19T16:11:02;24.60;64.60
21387;DHT22;10854;45.922;6.716;2023-09-19T16:14:05;24.90;64.00
21387;DHT22;10854;45.922;6.716;2023-09-19T16:17:03;25.10;63.30
21387;DHT22;10854;45.922;6.716;2023-09-19T16:19:39;25.20;63.10
21387;DHT22;10854;45.922;6.716;2023-09-19T16:22:31;25.20;62.90
21387;DHT22;10854;45.922;6.716;2023-09-19T16:25:04;25.20;62.80
21387;DHT22;10854;45.922;6.716;2023-09-19T16:28:04;25.20;62.70
21387;DHT22;10854;45.922;6.716;2023-09-19T16:41:40;25.00;63.20
21387;DHT22;10854;45.922;6.716;2023-09-19T16:44:54;23.30;67.10
21387;DHT22;10854;45.922;6.716;2023-09-19T16:47:25;23.00;67.60
21387;DHT22;10854;45.922;6.716;2023-09-19T16:50:01;22.70;68.50
21387;DHT22;10854;45.922;6.716;2023-09-19T16:52:44;22.20;69.40
21387;DHT22;10854;45.922;6.716;2023-09-19T16:55:36;21.90;71.60
21387;DHT22;10854;45.922;6.716;2023-09-19T16:58:09;21.60;71.80
21387;DHT22;10854;45.922;6.716;2023-09-19T17:00:44;21.30;72.40
21387;DHT22;10854;45.922;6.716;2023-09-19T17:03:25;21.10;73.00
21387;DHT22;10854;45.922;6.716;2023-09-19T17:06:40;20.90;73.60
21387;DHT22;10854;45.922;6.716;2023-09-19T17:09:15;20.70;74.70
21387;DHT22;10854;45.922;6.716;2023-09-19T17:12:08;20.50;75.80
21387;DHT22;10854;45.922;6.716;2023-09-19T17:14:51;20.30;76.60
21387;DHT22;10854;45.922;6.716;2023-09-19T17:17:57;20.20;78.10
21387;DHT22;10854;45.922;6.716;2023-09-19T17:20:53;19.90;79.10
21387;DHT22;10854;45.922;6.716;2023-09-19T17:23:50;19.70;79.90
21387;DHT22;10854;45.922;6.716;2023-09-19T17:26:35;19.50;81.50
21387;DHT22;10854;45.922;6.716;2023-09-19T17:29:07;19.30;81.70
21387;DHT22;10854;45.922;6.716;2023-09-19T17:32:01;19.10;82.60
21387;DHT22;10854;45.922;6.716;2023-09-19T17:34:40;18.90;83.60
21387;DHT22;10854;45.922;6.716;2023-09-19T17:37:19;18.80;84.70
21387;DHT22;10854;45.922;6.716;2023-09-19T17:39:51;18.60;85.20
21387;DHT22;10854;45.922;6.716;2023-09-19T17:43:13;18.60;86.10
21387;DHT22;10854;45.922;6.716;2023-09-19T17:46:16;18.50;86.80
21387;DHT22;10854;45.922;6.716;2023-09-19T17:49:10;18.40;87.30
21387;DHT22;10854;45.922;6.716;2023-09-19T17:52:25;18.40;87.60
21387;DHT22;10854;45.922;6.716;2023-09-19T17:55:00;18.40;88.70
21387;DHT22;10854;45.922;6.716;2023-09-19T17:57:52;18.30;88.80
21387;DHT22;10854;45.922;6.716;2023-09-19T18:00:42;18.30;89.20
21387;DHT22;10854;45.922;6.716;2023-09-19T18:03:16;18.30;90.00
21387;DHT22;10854;45.922;6.716;2023-09-19T18:06:12;18.20;90.20
21387;DHT22;10854;45.922;6.716;2023-09-19T18:08:52;18.20;90.60
21387;DHT22;10854;45.922;6.716;2023-09-19T18:11:49;18.10;91.00
21387;DHT22;10854;45.922;6.716;2023-09-19T18:14:26;18.00;91.60
21387;DHT22;10854;45.922;6.716;2023-09-19T18:17:22;17.90;92.30
21387;DHT22;10854;45.922;6.716;2023-09-19T18:19:59;17.90;93.10
21387;DHT22;10854;45.922;6.716;2023-09-19T18:22:34;17.80;93.90
21387;DHT22;10854;45.922;6.716;2023-09-19T18:25:12;17.70;95.20
21387;DHT22;10854;45.922;6.716;2023-09-19T18:27:49;17.60;96.60
21387;DHT22;10854;45.922;6.716;2023-09-19T18:30:34;17.60;98.10
21387;DHT22;10854;45.922;6.716;2023-09-19T18:33:15;17.50;99.60
21387;DHT22;10854;45.922;6.716;2023-09-19T18:36:06;17.40;99.90
21387;DHT22;10854;45.922;6.716;2023-09-19T18:39:09;17.40;99.90
21387;DHT22;10854;45.922;6.716;2023-09-19T18:41:49;17.30;99.90
21387;DHT22;10854;45.922;6.716;2023-09-19T18:44:36;17.30;99.90
21387;DHT22;10854;45.922;6.716;2023-09-19T18:47:12;17.20;99.90
21387;DHT22;10854;45.922;6.716;2023-09-19T18:49:45;17.20;99.90
21387;DHT22;10854;45.922;6.716;2023-09-19T18:52:26;17.30;99.90
21387;DHT22;10854;45.922;6.716;2023-09-19T18:55:26;17.30;99.90
21387;DHT22;10854;45.922;6.716;2023-09-19T18:58:10;17.30;99.90
21387;DHT22;10854;45.922;6.716;2023-09-19T19:01:04;17.20;99.90
21387;DHT22;10854;45.922;6.716;2023-09-19T19:04:12;17.20;99.90
21387;DHT22;10854;45.922;6.716;2023-09-19T19:07:02;17.10;99.90
21387;DHT22;10854;45.922;6.716;2023-09-19T19:09:58;17.00;99.90
21387;DHT22;10854;45.922;6.716;2023-09-19T19:12:56;16.90;99.90
21387;DHT22;10854;45.922;6.716;2023-09-19T19:16:07;16.80;99.90
21387;DHT22;10854;45.922;6.716;2023-09-19T19:19:02;16.70;99.90
21387;DHT22;10854;45.922;6.716;2023-09-19T19:21:36;16.60;99.90
21387;DHT22;10854;45.922;6.716;2023-09-19T19:24:32;16.50;99.90
21387;DHT22;10854;45.922;6.716;2023-09-19T19:27:21;16.40;99.90
21387;DHT22;10854;45.922;6.716;2023-09-19T19:30:15;16.30;99.90
21387;DHT22;10854;45.922;6.716;2023-09-19T19:33:31;16.20;99.90
21387;DHT22;10854;45.922;6.716;2023-09-19T19:36:32;16.10;99.90
21387;DHT22;10854;45.922;6.716;2023-09-19T19:39:28;16.00;99.90
21387;DHT22;10854;45.922;6.716;2023-09-19T19:42:01;15.90;99.90
21387;DHT22;10854;45.922;6.716;2023-09-19T19:44:37;15.80;99.90
21387;DHT22;10854;45.922;6.716;2023-09-19T19:47:29;15.80;99.90
21387;DHT22;10854;45.922;6.716;2023-09-19T19:50:44;15.70;99.90
21387;DHT22;10854;45.922;6.716;2023-09-19T19:53:43;15.60;99.90
21387;DHT22;10854;45.922;6.716;2023-09-19T19:56:29;15.50;99.90
21387;DHT22;10854;45.922;6.716;2023-09-19T19:59:09;15.40;99.90
21387;DHT22;10854;45.922;6.716;2023-09-19T20:01:39;15.40;99.90
21387;DHT22;10854;45.922;6.716;2023-09-19T20:04:33;15.30;99.90
21387;DHT22;10854;45.922;6.716;2023-09-19T20:07:06;15.20;99.90
21387;DHT22;10854;45.922;6.716;2023-09-19T20:09:46;15.20;99.90
21387;DHT22;10854;45.922;6.716;2023-09-19T20:12:37;15.10;99.90
21387;DHT22;10854;45.922;6.716;2023-09-19T20:15:16;15.10;99.90
21387;DHT22;10854;45.922;6.716;2023-09-19T20:17:54;15.00;99.90
21387;DHT22;10854;45.922;6.716;2023-09-19T20:20:56;14.90;99.90
21387;DHT22;10854;45.922;6.716;2023-09-19T20:23:32;14.90;99.90
21387;DHT22;10854;45.922;6.716;2023-09-19T20:26:13;14.90;99.90
21387;DHT22;10854;45.922;6.716;2023-09-19T20:28:57;14.80;99.90
21387;DHT22;10854;45.922;6.716;2023-09-19T20:31:31;14.80;99.90
21387;DHT22;10854;45.922;6.716;2023-09-19T20:34:06;14.70;99.90
21387;DHT22;10854;45.922;6.716;2023-09-19T20:36:59;14.70;99.90
21387;DHT22;10854;45.922;6.716;2023-09-19T20:39:52;14.60;99.90
21387;DHT22;10854;45.922;6.716;2023-09-19T20:42:30;14.60;99.90
21387;DHT22;10854;45.922;6.716;2023-09-19T20:45:16;14.50;99.90
21387;DHT22;10854;45.922;6.716;2023-09-19T20:48:09;14.50;99.90
21387;DHT22;10854;45.922;6.716;2023-09-19T20:50:50;14.40;99.90
21387;DHT22;10854;45.922;6.716;2023-09-19T20:53:41;14.50;99.90
21387;DHT22;10854;45.922;6.716;2023-09-19T20:56:21;14.50;99.90
21387;DHT22;10854;45.922;6.716;2023-09-19T20:59:03;14.40;99.90
21387;DHT22;10854;45.922;6.716;2023-09-19T21:01:48;14.40;99.90
21387;DHT22;10854;45.922;6.716;2023-09-19T21:04:52;14.40;99.90
21387;DHT22;10854;45.922;6.716;2023-09-19T21:07:24;14.30;99.90
21387;DHT22;10854;45.922;6.716;2023-09-19T21:10:00;14.30;99.90
21387;DHT22;10854;45.922;6.716;2023-09-19T21:12:52;14.30;99.90
21387;DHT22;10854;45.922;6.716;2023-09-19T21:15:58;14.20;99.90
21387;DHT22;10854;45.922;6.716;2023-09-19T21:18:51;14.20;99.90
21387;DHT22;10854;45.922;6.716;2023-09-19T21:21:44;14.10;99.90
21387;DHT22;10854;45.922;6.716;2023-09-19T21:24:14;14.10;99.90
21387;DHT22;10854;45.922;6.716;2023-09-19T21:27:04;14.10;99.90
21387;DHT22;10854;45.922;6.716;2023-09-19T21:29:36;14.10;99.90
21387;DHT22;10854;45.922;6.716;2023-09-19T21:32:09;14.10;99.90
21387;DHT22;10854;45.922;6.716;2023-09-19T21:34:42;14.10;99.90
21387;DHT22;10854;45.922;6.716;2023-09-19T21:37:16;14.10;99.90
21387;DHT22;10854;45.922;6.716;2023-09-19T21:40:33;14.20;99.90
21387;DHT22;10854;45.922;6.716;2023-09-19T21:43:05;14.30;99.90
21387;DHT22;10854;45.922;6.716;2023-09-19T21:45:40;14.40;99.90
21387;DHT22;10854;45.922;6.716;2023-09-19T21:48:48;14.50;99.90
21387;DHT22;10854;45.922;6.716;2023-09-19T21:51:42;14.60;99.90
21387;DHT22;10854;45.922;6.716;2023-09-19T21:54:19;14.50;99.90
21387;DHT22;10854;45.922;6.716;2023-09-19T21:56:59;14.60;99.90
21387;DHT22;10854;45.922;6.716;2023-09-19T22:00:19;14.60;99.90
21387;DHT22;10854;45.922;6.716;2023-09-19T22:03:29;14.70;99.90
21387;DHT22;10854;45.922;6.716;2023-09-19T22:06:16;14.70;99.90
21387;DHT22;10854;45.922;6.716;2023-09-19T22:08:50;14.60;99.90
21387;DHT22;10854;45.922;6.716;2023-09-19T22:11:22;14.70;99.90
21387;DHT22;10854;45.922;6.716;2023-09-19T22:13:56;14.70;99.90
21387;DHT22;10854;45.922;6.716;2023-09-19T22:16:32;14.70;99.90
21387;DHT22;10854;45.922;6.716;2023-09-19T22:19:06;14.60;99.90
21387;DHT22;10854;45.922;6.716;2023-09-19T22:21:46;14.60;99.90
21387;DHT22;10854;45.922;6.716;2023-09-19T22:24:16;14.50;99.90
21387;DHT22;10854;45.922;6.716;2023-09-19T22:26:56;14.40;99.90
21387;DHT22;10854;45.922;6.716;2023-09-19T22:29:33;14.30;99.90
21387;DHT22;10854;45.922;6.716;2023-09-19T22:32:29;14.20;99.90
21387;DHT22;10854;45.922;6.716;2023-09-19T22:35:11;14.20;99.90
21387;DHT22;10854;45.922;6.716;2023-09-19T22:37:42;14.10;99.90
21387;DHT22;10854;45.922;6.716;2023-09-19T22:40:47;14.00;99.90
21387;DHT22;10854;45.922;6.716;2023-09-19T22:43:44;13.90;99.90
21387;DHT22;10854;45.922;6.716;2023-09-19T22:46:19;13.90;99.90
21387;DHT22;10854;45.922;6.716;2023-09-19T22:49:13;13.80;99.90
21387;DHT22;10854;45.922;6.716;2023-09-19T22:51:57;13.70;99.90
21387;DHT22;10854;45.922;6.716;2023-09-19T22:54:32;13.70;99.90
21387;DHT22;10854;45.922;6.716;2023-09-19T22:57:16;13.60;99.90
21387;DHT22;10854;45.922;6.716;2023-09-19T22:59:59;13.50;99.90
21387;DHT22;10854;45.922;6.716;2023-09-19T23:02:43;13.50;99.90
21387;DHT22;10854;45.922;6.716;2023-09-19T23:05:14;13.40;99.90
21387;DHT22;10854;45.922;6.716;2023-09-19T23:07:46;13.40;99.90
21387;DHT22;10854;45.922;6.716;2023-09-19T23:10:45;13.40;99.90
21387;DHT22;10854;45.922;6.716;2023-09-19T23:13:21;13.30;99.90
21387;DHT22;10854;45.922;6.716;2023-09-19T23:16:02;13.30;99.90
21387;DHT22;10854;45.922;6.716;2023-09-19T23:18:59;13.30;99.90
21387;DHT22;10854;45.922;6.716;2023-09-19T23:21:39;13.20;99.90
21387;DHT22;10854;45.922;6.716;2023-09-19T23:24:39;13.20;99.90
21387;DHT22;10854;45.922;6.716;2023-09-19T23:27:11;13.20;99.90
21387;DHT22;10854;45.922;6.716;2023-09-19T23:30:00;13.10;99.90
21387;DHT22;10854;45.922;6.716;2023-09-19T23:32:29;13.10;99.90
21387;DHT22;10854;45.922;6.716;2023-09-19T23:35:22;13.10;99.90
21387;DHT22;10854;45.922;6.716;2023-09-19T23:38:01;13.10;99.90
21387;DHT22;10854;45.922;6.716;2023-09-19T23:40:58;13.00;99.90
21387;DHT22;10854;45.922;6.716;2023-09-19T23:43:28;13.00;99.90
21387;DHT22;10854;45.922;6.716;2023-09-19T23:46:14;13.00;99.90
21387;DHT22;10854;45.922;6.716;2023-09-19T23:48:44;13.00;99.90
21387;DHT22;10854;45.922;6.716;2023-09-19T23:51:42;12.90;99.90
21387;DHT22;10854;45.922;6.716;2023-09-19T23:54:16;12.90;99.90
21387;DHT22;10854;45.922;6.716;2023-09-19T23:57:22;12.90;99.90
21387;DHT22;10854;45.922;6.716;2023-09-19T23:59:53;12.90;99.90
